createdAt,value
2019-02-25T00:00:40.435Z,0
2019-02-25T00:01:48.492Z,0
2019-02-25T00:02:56.546Z,0
2019-02-25T00:04:04.586Z,0
2019-02-25T00:05:12.711Z,0
2019-02-25T00:06:20.708Z,0
2019-02-25T00:07:28.794Z,0
2019-02-25T00:08:36.856Z,0
2019-02-25T00:09:44.885Z,0
2019-02-25T00:10:52.946Z,0
2019-02-25T00:12:00.996Z,0
2019-02-25T00:13:09.285Z,0
2019-02-25T00:14:17.117Z,0
2019-02-25T00:15:25.191Z,0
2019-02-25T00:16:33.516Z,0
2019-02-25T00:17:41.508Z,0
2019-02-25T00:18:49.602Z,0
2019-02-25T00:19:57.634Z,0
2019-02-25T00:21:05.711Z,0
2019-02-25T00:22:13.625Z,0
2019-02-25T00:23:21.839Z,0
2019-02-25T00:24:29.876Z,0
2019-02-25T00:25:38.020Z,0
2019-02-25T00:26:45.952Z,0
2019-02-25T00:27:54.008Z,0
2019-02-25T00:29:02.062Z,0
2019-02-25T00:30:09.916Z,0
2019-02-25T00:31:17.929Z,0
2019-02-25T00:32:26.015Z,0
2019-02-25T00:33:34.066Z,0
2019-02-25T00:34:42.164Z,0
2019-02-25T00:35:50.183Z,0
2019-02-25T00:36:58.216Z,0
2019-02-25T00:38:06.292Z,0
2019-02-25T00:39:14.351Z,0
2019-02-25T00:40:22.398Z,0
2019-02-25T00:41:30.456Z,0
2019-02-25T00:42:38.522Z,0
2019-02-25T00:43:46.576Z,0
2019-02-25T00:44:54.625Z,0
2019-02-25T00:46:02.698Z,0
2019-02-25T00:47:10.763Z,0
2019-02-25T00:48:18.806Z,0
2019-02-25T00:49:26.852Z,0
2019-02-25T00:50:34.923Z,0
2019-02-25T00:51:42.974Z,0
2019-02-25T00:52:51.023Z,0
2019-02-25T00:53:59.102Z,0
2019-02-25T00:55:07.153Z,0
2019-02-25T00:56:15.235Z,0
2019-02-25T00:57:23.275Z,0
2019-02-25T00:58:31.347Z,0
2019-02-25T00:59:39.358Z,0
2019-02-25T01:00:47.385Z,0
2019-02-25T01:01:55.486Z,0
2019-02-25T01:03:03.527Z,0
2019-02-25T01:04:11.611Z,0
2019-02-25T01:05:19.687Z,0
2019-02-25T01:06:27.698Z,0
2019-02-25T01:07:35.796Z,0
2019-02-25T01:08:43.847Z,0
2019-02-25T01:09:51.913Z,0
2019-02-25T01:10:59.928Z,0
2019-02-25T01:12:07.980Z,0
2019-02-25T01:13:16.039Z,0
2019-02-25T01:14:24.141Z,0
2019-02-25T01:15:32.169Z,0
2019-02-25T01:16:40.221Z,0
2019-02-25T01:17:48.255Z,0
2019-02-25T01:18:56.346Z,0
2019-02-25T01:20:04.431Z,0
2019-02-25T01:21:12.425Z,0
2019-02-25T01:22:20.485Z,0
2019-02-25T01:23:28.559Z,0
2019-02-25T01:24:36.603Z,0
2019-02-25T01:25:44.667Z,0
2019-02-25T01:26:52.714Z,0
2019-02-25T01:28:00.791Z,0
2019-02-25T01:29:08.834Z,0
2019-02-25T01:30:16.883Z,0
2019-02-25T01:31:24.940Z,0
2019-02-25T01:32:32.998Z,0
2019-02-25T01:33:41.058Z,0
2019-02-25T01:34:49.110Z,0
2019-02-25T01:35:57.165Z,0
2019-02-25T01:37:05.223Z,0
2019-02-25T01:38:13.290Z,0
2019-02-25T01:39:21.340Z,0
2019-02-25T01:40:29.397Z,0
2019-02-25T01:41:37.414Z,0
2019-02-25T01:42:45.502Z,0
2019-02-25T01:43:53.553Z,0
2019-02-25T01:45:01.617Z,0
2019-02-25T01:46:09.667Z,0
2019-02-25T01:47:17.719Z,0
2019-02-25T01:48:25.808Z,0
2019-02-25T01:49:33.850Z,0
2019-02-25T01:50:41.920Z,0
2019-02-25T01:51:49.965Z,0
2019-02-25T01:52:57.991Z,0
2019-02-25T01:54:06.073Z,0
2019-02-25T01:55:14.120Z,0
2019-02-25T01:56:22.176Z,0
2019-02-25T01:57:30.237Z,0
2019-02-25T01:58:38.303Z,0
2019-02-25T01:59:46.355Z,0
2019-02-25T02:00:54.417Z,0
2019-02-25T02:02:02.472Z,0
2019-02-25T02:03:10.519Z,0
2019-02-25T02:04:18.580Z,0
2019-02-25T02:05:26.655Z,0
2019-02-25T02:06:34.689Z,0
2019-02-25T02:07:42.771Z,0
2019-02-25T02:08:50.809Z,0
2019-02-25T02:09:58.875Z,0
2019-02-25T02:11:06.930Z,0
2019-02-25T02:12:14.982Z,0
2019-02-25T02:13:23.038Z,0
2019-02-25T02:14:31.097Z,0
2019-02-25T02:15:39.170Z,0
2019-02-25T02:16:47.194Z,0
2019-02-25T02:17:55.259Z,0
2019-02-25T02:19:03.322Z,0
2019-02-25T02:20:11.366Z,0
2019-02-25T02:21:19.436Z,0
2019-02-25T02:22:27.454Z,0
2019-02-25T02:23:35.556Z,0
2019-02-25T02:24:43.604Z,0
2019-02-25T02:25:51.661Z,0
2019-02-25T02:26:59.716Z,0
2019-02-25T02:28:07.739Z,0
2019-02-25T02:29:15.825Z,0
2019-02-25T02:30:23.894Z,0
2019-02-25T02:31:31.939Z,0
2019-02-25T02:32:40.000Z,0
2019-02-25T02:33:48.023Z,0
2019-02-25T02:34:56.104Z,0
2019-02-25T02:36:04.174Z,0
2019-02-25T02:37:12.312Z,0
2019-02-25T02:38:20.288Z,0
2019-02-25T02:39:28.348Z,0
2019-02-25T02:40:36.386Z,0
2019-02-25T02:41:44.453Z,0
2019-02-25T02:42:52.514Z,0
2019-02-25T02:44:00.558Z,0
2019-02-25T02:45:08.613Z,0
2019-02-25T02:46:16.671Z,0
2019-02-25T02:47:24.730Z,0
2019-02-25T02:48:32.797Z,0
2019-02-25T02:49:40.845Z,0
2019-02-25T02:50:48.896Z,0
2019-02-25T02:51:56.970Z,0
2019-02-25T02:53:05.023Z,0
2019-02-25T02:54:13.080Z,0
2019-02-25T02:55:21.131Z,0
2019-02-25T02:56:29.187Z,0
2019-02-25T02:57:37.228Z,0
2019-02-25T02:58:45.307Z,0
2019-02-25T02:59:53.349Z,0
2019-02-25T03:01:01.405Z,0
2019-02-25T03:02:09.504Z,0
2019-02-25T03:03:17.506Z,0
2019-02-25T03:04:25.579Z,0
2019-02-25T03:05:33.641Z,0
2019-02-25T03:06:41.679Z,0
2019-02-25T03:07:49.743Z,0
2019-02-25T03:08:57.802Z,0
2019-02-25T03:10:05.886Z,0
2019-02-25T03:11:13.929Z,0
2019-02-25T03:12:21.978Z,0
2019-02-25T03:13:30.031Z,0
2019-02-25T03:14:38.075Z,0
2019-02-25T03:15:46.157Z,0
2019-02-25T03:16:54.195Z,0
2019-02-25T03:18:02.258Z,0
2019-02-25T03:19:10.326Z,0
2019-02-25T03:20:18.366Z,0
2019-02-25T03:21:26.427Z,0
2019-02-25T03:22:34.473Z,0
2019-02-25T03:23:42.544Z,0
2019-02-25T03:24:50.603Z,0
2019-02-25T03:25:58.657Z,0
2019-02-25T03:27:06.717Z,0
2019-02-25T03:28:14.759Z,0
2019-02-25T03:29:22.829Z,0
2019-02-25T03:30:30.895Z,0
2019-02-25T03:31:38.934Z,0
2019-02-25T03:32:47.045Z,0
2019-02-25T03:33:55.058Z,0
2019-02-25T03:35:03.101Z,0
2019-02-25T03:36:11.170Z,0
2019-02-25T03:37:19.223Z,0
2019-02-25T03:38:27.260Z,0
2019-02-25T03:39:35.323Z,0
2019-02-25T03:40:43.397Z,0
2019-02-25T03:41:51.464Z,0
2019-02-25T03:42:59.538Z,0
2019-02-25T03:44:07.542Z,0
2019-02-25T03:45:15.630Z,0
2019-02-25T03:46:23.693Z,0
2019-02-25T03:47:31.725Z,0
2019-02-25T03:48:39.784Z,0
2019-02-25T03:49:47.829Z,0
2019-02-25T03:50:55.909Z,0
2019-02-25T03:52:03.955Z,0
2019-02-25T03:53:12.007Z,0
2019-02-25T03:54:20.070Z,0
2019-02-25T03:55:28.097Z,0
2019-02-25T03:56:36.193Z,0
2019-02-25T03:57:44.252Z,0
2019-02-25T03:58:52.302Z,0
2019-02-25T04:00:00.358Z,0
2019-02-25T04:01:08.417Z,0
2019-02-25T04:02:16.482Z,0
2019-02-25T04:03:24.533Z,0
2019-02-25T04:04:32.581Z,0
2019-02-25T04:05:40.649Z,0
2019-02-25T04:06:48.707Z,0
2019-02-25T04:07:56.752Z,0
2019-02-25T04:09:04.865Z,0
2019-02-25T04:10:12.874Z,0
2019-02-25T04:11:20.916Z,0
2019-02-25T04:12:29.082Z,0
2019-02-25T04:13:37.046Z,0
2019-02-25T04:14:45.100Z,0
2019-02-25T04:15:53.169Z,0
2019-02-25T04:17:01.221Z,0
2019-02-25T04:18:09.278Z,0
2019-02-25T04:19:17.297Z,0
2019-02-25T04:20:25.385Z,0
2019-02-25T04:21:33.429Z,0
2019-02-25T04:22:41.493Z,0
2019-02-25T04:23:49.554Z,0
2019-02-25T04:24:57.588Z,0
2019-02-25T04:26:05.657Z,0
2019-02-25T04:27:13.721Z,0
2019-02-25T04:28:21.784Z,0
2019-02-25T04:29:29.828Z,0
2019-02-25T04:30:37.906Z,0
2019-02-25T04:31:45.995Z,0
2019-02-25T04:32:54.004Z,0
2019-02-25T04:34:02.056Z,0
2019-02-25T04:35:10.158Z,0
2019-02-25T04:36:18.145Z,0
2019-02-25T04:37:26.384Z,0
2019-02-25T04:38:34.302Z,0
2019-02-25T04:39:42.350Z,0
2019-02-25T04:40:50.410Z,0
2019-02-25T04:41:58.492Z,0
2019-02-25T04:43:06.545Z,0
2019-02-25T04:44:14.582Z,0
2019-02-25T04:45:22.675Z,0
2019-02-25T04:46:30.690Z,0
2019-02-25T04:47:38.754Z,0
2019-02-25T04:48:46.798Z,0
2019-02-25T04:49:54.857Z,0
2019-02-25T04:51:02.913Z,0
2019-02-25T04:52:10.969Z,0
2019-02-25T04:53:19.030Z,0
2019-02-25T04:54:27.086Z,0
2019-02-25T04:55:35.148Z,0
2019-02-25T04:56:43.192Z,0
2019-02-25T04:57:51.251Z,0
2019-02-25T04:58:59.317Z,0
2019-02-25T05:00:07.351Z,0
2019-02-25T05:01:15.429Z,0
2019-02-25T05:02:23.490Z,0
2019-02-25T05:03:31.540Z,0
2019-02-25T05:04:39.597Z,0
2019-02-25T05:05:47.638Z,0
2019-02-25T05:06:55.716Z,0
2019-02-25T05:08:03.765Z,0
2019-02-25T05:09:11.821Z,0
2019-02-25T05:10:19.886Z,0
2019-02-25T05:11:27.919Z,0
2019-02-25T05:12:35.994Z,0
2019-02-25T05:13:44.057Z,0
2019-02-25T05:14:52.115Z,0
2019-02-25T05:16:00.157Z,0
2019-02-25T05:17:08.195Z,0
2019-02-25T05:18:16.270Z,0
2019-02-25T05:19:24.340Z,0
2019-02-25T05:20:32.388Z,0
2019-02-25T05:21:40.456Z,0
2019-02-25T05:22:48.507Z,0
2019-02-25T05:23:56.555Z,0
2019-02-25T05:25:04.617Z,0
2019-02-25T05:26:12.776Z,0
2019-02-25T05:27:20.892Z,0
2019-02-25T05:28:28.799Z,0
2019-02-25T05:29:36.840Z,0
2019-02-25T05:30:44.898Z,0
2019-02-25T05:31:52.967Z,0
2019-02-25T05:33:01.008Z,0
2019-02-25T05:34:09.084Z,0
2019-02-25T05:35:17.122Z,0
2019-02-25T05:36:25.188Z,0
2019-02-25T05:37:33.248Z,0
2019-02-25T05:38:42.092Z,0
2019-02-25T05:39:49.361Z,0
2019-02-25T05:40:57.400Z,0
2019-02-25T05:42:05.481Z,4
2019-02-25T05:43:13.522Z,4
2019-02-25T05:44:21.678Z,0
2019-02-25T05:45:29.638Z,4
2019-02-25T05:46:38.287Z,4
2019-02-25T05:47:45.769Z,8
2019-02-25T05:48:53.861Z,8
2019-02-25T05:50:01.874Z,4
2019-02-25T05:51:09.937Z,8
2019-02-25T05:52:17.993Z,12
2019-02-25T05:53:26.036Z,12
2019-02-25T05:54:34.725Z,16
2019-02-25T05:55:42.700Z,20
2019-02-25T05:56:50.220Z,28
2019-02-25T05:57:58.276Z,32
2019-02-25T05:59:06.355Z,44
2019-02-25T06:00:14.391Z,52
2019-02-25T06:01:22.451Z,68
2019-02-25T06:02:30.499Z,84
2019-02-25T06:03:38.548Z,100
2019-02-25T06:04:46.617Z,120
2019-02-25T06:05:54.672Z,144
2019-02-25T06:07:02.747Z,172
2019-02-25T06:08:10.796Z,200
2019-02-25T06:09:18.837Z,228
2019-02-25T06:10:26.892Z,264
2019-02-25T06:11:34.973Z,296
2019-02-25T06:12:43.043Z,332
2019-02-25T06:13:51.067Z,372
2019-02-25T06:14:59.140Z,408
2019-02-25T06:16:07.186Z,452
2019-02-25T06:17:15.258Z,500
2019-02-25T06:18:23.312Z,548
2019-02-25T06:19:31.362Z,596
2019-02-25T06:20:39.415Z,644
2019-02-25T06:21:47.460Z,692
2019-02-25T06:22:55.541Z,744
2019-02-25T06:24:03.620Z,788
2019-02-25T06:25:11.653Z,840
2019-02-25T06:26:19.721Z,884
2019-02-25T06:27:30.577Z,928
2019-02-25T06:28:35.832Z,972
2019-02-25T06:29:43.880Z,1008
2019-02-25T06:30:51.939Z,1048
2019-02-25T06:32:00.021Z,1084
2019-02-25T06:33:08.057Z,1120
2019-02-25T06:34:16.126Z,1152
2019-02-25T06:35:24.174Z,1184
2019-02-25T06:36:32.238Z,1212
2019-02-25T06:37:40.313Z,1240
2019-02-25T06:38:48.348Z,1264
2019-02-25T06:39:56.398Z,1288
2019-02-25T06:41:04.458Z,1312
2019-02-25T06:42:12.524Z,1336
2019-02-25T06:43:20.580Z,1356
2019-02-25T06:44:28.630Z,1380
2019-02-25T06:45:36.706Z,1400
2019-02-25T06:46:44.749Z,1424
2019-02-25T06:47:52.817Z,1452
2019-02-25T06:49:00.858Z,1472
2019-02-25T06:50:08.927Z,1500
2019-02-25T06:51:16.992Z,1536
2019-02-25T06:52:25.036Z,1588
2019-02-25T06:53:33.093Z,1660
2019-02-25T06:54:41.140Z,2508
2019-02-25T06:55:49.209Z,4004
2019-02-25T06:56:57.250Z,4876
2019-02-25T06:58:05.342Z,5012
2019-02-25T06:59:13.367Z,5408
2019-02-25T07:00:21.448Z,5628
2019-02-25T07:01:29.500Z,5256
2019-02-25T07:02:37.539Z,5172
2019-02-25T07:03:45.609Z,6000
2019-02-25T07:04:53.670Z,6120
2019-02-25T07:06:01.739Z,4268
2019-02-25T07:07:09.817Z,2104
2019-02-25T07:08:17.830Z,2788
2019-02-25T07:09:25.915Z,2116
2019-02-25T07:10:33.966Z,2312
2019-02-25T07:11:42.030Z,2352
2019-02-25T07:12:50.095Z,2688
2019-02-25T07:13:58.127Z,3208
2019-02-25T07:15:06.212Z,4240
2019-02-25T07:16:14.268Z,4996
2019-02-25T07:17:22.778Z,4652
2019-02-25T07:18:30.373Z,6120
2019-02-25T07:19:38.431Z,6292
2019-02-25T07:20:46.515Z,6252
2019-02-25T07:21:54.566Z,7248
2019-02-25T07:23:03.438Z,8164
2019-02-25T07:24:10.692Z,6928
2019-02-25T07:25:18.735Z,5456
2019-02-25T07:26:27.563Z,4924
2019-02-25T07:27:34.847Z,5916
2019-02-25T07:28:42.918Z,6184
2019-02-25T07:29:50.991Z,6000
2019-02-25T07:30:59.060Z,6704
2019-02-25T07:32:07.121Z,7092
2019-02-25T07:33:15.384Z,8460
2019-02-25T07:34:23.266Z,9272
2019-02-25T07:35:31.315Z,8024
2019-02-25T07:36:39.391Z,8132
2019-02-25T07:37:47.418Z,6584
2019-02-25T07:38:55.498Z,6488
2019-02-25T07:40:03.565Z,8740
2019-02-25T07:41:11.579Z,8192
2019-02-25T07:42:19.644Z,4540
2019-02-25T07:43:27.682Z,5180
2019-02-25T07:44:35.756Z,5180
2019-02-25T07:45:43.849Z,5972
2019-02-25T07:46:51.876Z,5388
2019-02-25T07:47:59.958Z,4644
2019-02-25T07:49:07.979Z,4560
2019-02-25T07:50:16.078Z,4684
2019-02-25T07:51:24.119Z,3724
2019-02-25T07:52:32.202Z,6312
2019-02-25T07:53:40.255Z,7960
2019-02-25T07:54:48.326Z,7508
2019-02-25T07:56:02.254Z,11512
2019-02-25T07:57:04.437Z,9500
2019-02-25T07:58:12.494Z,4480
2019-02-25T07:59:20.548Z,3272
2019-02-25T08:00:28.607Z,3084
2019-02-25T08:01:36.672Z,7028
2019-02-25T08:02:44.737Z,8524
2019-02-25T08:03:52.810Z,11844
2019-02-25T08:05:00.856Z,12080
2019-02-25T08:06:08.928Z,7164
2019-02-25T08:07:16.975Z,3912
2019-02-25T08:08:25.040Z,3144
2019-02-25T08:09:33.094Z,2960
2019-02-25T08:10:41.162Z,2808
2019-02-25T08:11:49.217Z,2744
2019-02-25T08:12:57.261Z,2716
2019-02-25T08:14:05.339Z,2736
2019-02-25T08:15:13.402Z,2816
2019-02-25T08:16:21.460Z,2812
2019-02-25T08:17:29.535Z,2740
2019-02-25T08:18:37.574Z,2716
2019-02-25T08:19:45.647Z,2728
2019-02-25T08:20:53.711Z,2780
2019-02-25T08:22:01.762Z,2812
2019-02-25T08:23:09.827Z,2824
2019-02-25T08:24:17.862Z,2796
2019-02-25T08:25:25.959Z,2748
2019-02-25T08:26:33.999Z,2748
2019-02-25T08:27:42.054Z,2748
2019-02-25T08:28:50.125Z,2748
2019-02-25T08:29:58.170Z,2752
2019-02-25T08:31:06.253Z,2752
2019-02-25T08:32:14.308Z,2752
2019-02-25T08:33:22.379Z,2752
2019-02-25T08:34:30.458Z,2756
2019-02-25T08:35:38.493Z,2760
2019-02-25T08:36:46.540Z,2756
2019-02-25T08:37:54.618Z,2760
2019-02-25T08:39:02.706Z,2760
2019-02-25T08:40:11.638Z,2760
2019-02-25T08:41:18.827Z,2768
2019-02-25T08:42:26.903Z,2772
2019-02-25T08:43:34.922Z,2776
2019-02-25T08:44:42.985Z,2780
2019-02-25T08:45:51.059Z,2780
2019-02-25T08:46:59.088Z,2780
2019-02-25T08:48:07.145Z,2780
2019-02-25T08:49:15.210Z,2796
2019-02-25T08:50:23.272Z,2796
2019-02-25T08:51:31.338Z,2796
2019-02-25T08:52:39.383Z,2796
2019-02-25T08:53:47.446Z,2800
2019-02-25T08:54:55.551Z,2800
2019-02-25T08:56:03.594Z,2804
2019-02-25T08:57:11.643Z,2808
2019-02-25T08:58:19.699Z,2808
2019-02-25T08:59:27.733Z,2820
2019-02-25T09:00:35.828Z,2816
2019-02-25T09:01:43.893Z,2816
2019-02-25T09:02:51.980Z,2820
2019-02-25T09:04:00.050Z,2824
2019-02-25T09:05:08.049Z,2824
2019-02-25T09:06:16.131Z,2828
2019-02-25T09:07:24.173Z,2828
2019-02-25T09:08:32.270Z,2828
2019-02-25T09:09:40.328Z,2828
2019-02-25T09:10:48.347Z,2828
2019-02-25T09:11:56.434Z,2840
2019-02-25T09:13:04.490Z,2832
2019-02-25T09:14:12.582Z,2832
2019-02-25T09:15:20.606Z,2840
2019-02-25T09:16:28.709Z,2840
2019-02-25T09:17:36.725Z,2840
2019-02-25T09:18:44.805Z,2836
2019-02-25T09:19:52.854Z,2832
2019-02-25T09:21:00.917Z,2840
2019-02-25T09:22:08.975Z,2840
2019-02-25T09:23:17.040Z,2840
2019-02-25T09:24:25.101Z,2836
2019-02-25T09:25:33.170Z,2840
2019-02-25T09:26:41.223Z,2856
2019-02-25T09:27:49.291Z,2848
2019-02-25T09:28:57.517Z,2844
2019-02-25T09:30:05.405Z,2844
2019-02-25T09:31:13.447Z,2852
2019-02-25T09:32:21.537Z,2852
2019-02-25T09:33:29.619Z,2852
2019-02-25T09:34:37.639Z,2864
2019-02-25T09:35:46.369Z,2872
2019-02-25T09:36:53.787Z,2864
2019-02-25T09:38:01.845Z,2868
2019-02-25T09:39:10.488Z,2876
2019-02-25T09:40:18.537Z,2872
2019-02-25T09:41:29.801Z,2876
2019-02-25T09:42:34.081Z,2876
2019-02-25T09:43:42.132Z,2876
2019-02-25T09:44:50.197Z,2876
2019-02-25T09:45:58.259Z,2884
2019-02-25T09:47:06.326Z,2884
2019-02-25T09:48:14.385Z,2884
2019-02-25T09:49:22.439Z,2884
2019-02-25T09:50:30.500Z,2892
2019-02-25T09:51:38.553Z,2888
2019-02-25T09:52:46.638Z,2896
2019-02-25T09:53:54.699Z,2900
2019-02-25T09:55:02.749Z,2904
2019-02-25T09:56:10.812Z,2908
2019-02-25T09:57:18.881Z,2908
2019-02-25T09:58:26.935Z,2916
2019-02-25T09:59:35.012Z,2920
2019-02-25T10:00:43.068Z,2928
2019-02-25T10:01:51.121Z,2932
2019-02-25T10:02:59.177Z,2944
2019-02-25T10:04:08.701Z,2948
2019-02-25T10:05:15.297Z,2964
2019-02-25T10:06:23.371Z,2988
2019-02-25T10:07:31.432Z,3008
2019-02-25T10:08:39.492Z,3036
2019-02-25T10:09:47.552Z,3064
2019-02-25T10:10:55.621Z,3076
2019-02-25T10:12:03.674Z,3064
2019-02-25T10:13:11.750Z,3048
2019-02-25T10:14:19.808Z,3024
2019-02-25T10:15:27.852Z,3012
2019-02-25T10:16:35.928Z,3004
2019-02-25T10:17:44.008Z,2992
2019-02-25T10:18:52.086Z,2964
2019-02-25T10:20:00.692Z,2944
2019-02-25T10:21:08.155Z,2960
2019-02-25T10:22:16.266Z,2956
2019-02-25T10:23:24.328Z,2940
2019-02-25T10:24:32.386Z,2892
2019-02-25T10:25:40.417Z,2860
2019-02-25T10:26:48.484Z,2776
2019-02-25T10:27:56.558Z,2740
2019-02-25T10:29:04.605Z,2776
2019-02-25T10:30:12.719Z,2832
2019-02-25T10:31:20.764Z,2876
2019-02-25T10:32:30.212Z,2912
2019-02-25T10:33:36.868Z,2924
2019-02-25T10:34:44.954Z,2928
2019-02-25T10:35:52.980Z,2928
2019-02-25T10:37:01.053Z,2920
2019-02-25T10:38:09.100Z,2920
2019-02-25T10:39:17.841Z,2912
2019-02-25T10:40:27.368Z,2892
2019-02-25T10:41:33.309Z,2900
2019-02-25T10:42:41.369Z,2896
2019-02-25T10:43:49.972Z,2896
2019-02-25T10:44:57.469Z,2888
2019-02-25T10:46:06.922Z,2888
2019-02-25T10:47:15.252Z,2884
2019-02-25T10:48:23.290Z,2892
2019-02-25T10:49:31.243Z,2888
2019-02-25T10:50:38.526Z,2892
2019-02-25T10:51:45.868Z,2892
2019-02-25T10:53:02.916Z,2892
2019-02-25T10:54:01.983Z,2892
2019-02-25T10:55:10.061Z,2888
2019-02-25T10:56:19.831Z,2876
2019-02-25T10:57:27.061Z,2880
2019-02-25T10:58:35.780Z,2876
2019-02-25T10:59:42.295Z,2868
2019-02-25T11:00:50.357Z,2868
2019-02-25T11:01:58.413Z,2868
2019-02-25T11:03:06.484Z,2868
2019-02-25T11:04:15.347Z,2872
2019-02-25T11:05:23.267Z,2860
2019-02-25T11:06:32.357Z,2852
2019-02-25T11:07:39.738Z,2856
2019-02-25T11:08:46.799Z,2852
2019-02-25T11:09:54.917Z,2844
2019-02-25T11:11:02.965Z,2852
2019-02-25T11:12:10.984Z,2852
2019-02-25T11:13:19.046Z,2848
2019-02-25T11:14:27.134Z,2848
2019-02-25T11:15:35.209Z,2852
2019-02-25T11:16:43.979Z,2856
2019-02-25T11:17:52.093Z,2848
2019-02-25T11:19:00.862Z,2852
2019-02-25T11:20:07.405Z,2844
2019-02-25T11:21:15.511Z,2840
2019-02-25T11:22:23.583Z,2840
2019-02-25T11:23:31.611Z,2840
2019-02-25T11:24:39.675Z,2840
2019-02-25T11:25:47.736Z,2836
2019-02-25T11:26:56.891Z,2836
2019-02-25T11:28:04.872Z,2840
2019-02-25T11:29:13.719Z,2844
2019-02-25T11:30:21.245Z,2836
2019-02-25T11:31:29.126Z,2840
2019-02-25T11:32:36.150Z,2848
2019-02-25T11:33:44.246Z,2840
2019-02-25T11:34:52.241Z,2844
2019-02-25T11:36:00.361Z,2836
2019-02-25T11:37:08.370Z,2844
2019-02-25T11:38:16.478Z,2836
2019-02-25T11:39:25.262Z,2836
2019-02-25T11:40:34.054Z,2836
2019-02-25T11:41:41.105Z,2832
2019-02-25T11:42:48.695Z,2832
2019-02-25T11:43:56.760Z,2828
2019-02-25T11:45:04.817Z,2828
2019-02-25T11:46:12.876Z,2820
2019-02-25T11:47:20.940Z,2820
2019-02-25T11:48:28.996Z,2816
2019-02-25T11:49:37.054Z,2808
2019-02-25T11:50:45.139Z,2808
2019-02-25T11:51:53.244Z,2792
2019-02-25T11:53:01.316Z,2788
2019-02-25T11:54:09.322Z,2788
2019-02-25T11:55:17.396Z,2788
2019-02-25T11:56:25.453Z,2784
2019-02-25T11:57:33.534Z,2776
2019-02-25T11:58:42.378Z,2776
2019-02-25T11:59:49.678Z,2772
2019-02-25T12:00:57.731Z,2768
2019-02-25T12:02:05.771Z,2780
2019-02-25T12:03:13.862Z,2780
2019-02-25T12:04:21.922Z,2780
2019-02-25T12:05:29.962Z,2780
2019-02-25T12:06:38.058Z,2776
2019-02-25T12:07:46.088Z,2768
2019-02-25T12:08:54.157Z,2760
2019-02-25T12:10:02.224Z,2764
2019-02-25T12:11:10.305Z,2756
2019-02-25T12:12:18.341Z,2752
2019-02-25T12:13:26.417Z,2748
2019-02-25T12:14:34.467Z,2748
2019-02-25T12:15:42.543Z,2752
2019-02-25T12:16:50.601Z,2744
2019-02-25T12:17:58.655Z,2744
2019-02-25T12:19:06.721Z,2740
2019-02-25T12:20:14.785Z,2732
2019-02-25T12:21:22.851Z,2732
2019-02-25T12:22:31.011Z,2732
2019-02-25T12:23:38.985Z,2732
2019-02-25T12:24:47.037Z,2724
2019-02-25T12:25:55.126Z,2728
2019-02-25T12:27:03.175Z,2720
2019-02-25T12:28:11.234Z,2720
2019-02-25T12:29:19.305Z,2716
2019-02-25T12:30:27.348Z,2712
2019-02-25T12:31:35.427Z,2704
2019-02-25T12:32:43.483Z,2696
2019-02-25T12:33:51.565Z,2688
2019-02-25T12:34:59.620Z,2680
2019-02-25T12:36:07.659Z,2668
2019-02-25T12:37:15.749Z,2668
2019-02-25T12:38:23.817Z,2660
2019-02-25T12:39:31.879Z,2656
2019-02-25T12:40:39.958Z,2644
2019-02-25T12:41:47.982Z,2644
2019-02-25T12:42:56.078Z,2636
2019-02-25T12:44:04.143Z,2640
2019-02-25T12:45:12.196Z,2636
2019-02-25T12:46:20.252Z,2640
2019-02-25T12:47:28.352Z,2636
2019-02-25T12:48:36.392Z,2636
2019-02-25T12:49:44.453Z,2628
2019-02-25T12:50:52.505Z,2628
2019-02-25T12:52:00.571Z,2616
2019-02-25T12:53:08.662Z,2612
2019-02-25T12:54:16.744Z,2616
2019-02-25T12:55:24.770Z,2616
2019-02-25T12:56:32.836Z,2612
2019-02-25T12:57:40.904Z,2608
2019-02-25T12:58:48.990Z,2612
2019-02-25T12:59:57.035Z,2604
2019-02-25T13:01:05.097Z,2604
2019-02-25T13:02:13.158Z,2596
2019-02-25T13:03:21.218Z,2596
2019-02-25T13:04:29.283Z,2596
2019-02-25T13:05:37.357Z,2592
2019-02-25T13:06:45.416Z,2596
2019-02-25T13:07:53.473Z,2596
2019-02-25T13:09:01.557Z,2592
2019-02-25T13:10:09.615Z,2588
2019-02-25T13:11:17.652Z,2588
2019-02-25T13:12:25.742Z,2592
2019-02-25T13:13:33.804Z,2588
2019-02-25T13:14:41.867Z,2588
2019-02-25T13:15:49.948Z,2592
2019-02-25T13:16:57.960Z,2588
2019-02-25T13:18:06.050Z,2592
2019-02-25T13:19:14.129Z,2596
2019-02-25T13:20:22.178Z,2592
2019-02-25T13:21:30.257Z,2596
2019-02-25T13:22:38.305Z,2596
2019-02-25T13:23:46.403Z,2596
2019-02-25T13:24:54.456Z,2592
2019-02-25T13:26:07.166Z,2592
2019-02-25T13:27:11.694Z,2592
2019-02-25T13:28:18.637Z,2596
2019-02-25T13:29:26.735Z,2600
2019-02-25T13:30:34.802Z,2608
2019-02-25T13:31:42.869Z,2616
2019-02-25T13:32:50.883Z,2620
2019-02-25T13:33:58.961Z,2628
2019-02-25T13:35:07.009Z,2632
2019-02-25T13:36:15.130Z,2644
2019-02-25T13:37:23.139Z,2652
2019-02-25T13:38:31.213Z,2660
2019-02-25T13:39:39.276Z,2672
2019-02-25T13:40:47.337Z,2692
2019-02-25T13:41:55.413Z,2700
2019-02-25T13:43:03.475Z,2708
2019-02-25T13:44:11.558Z,2708
2019-02-25T13:45:19.639Z,2704
2019-02-25T13:46:27.645Z,2704
2019-02-25T13:47:35.731Z,2700
2019-02-25T13:48:43.821Z,2696
2019-02-25T13:49:51.888Z,2680
2019-02-25T13:50:59.944Z,2672
2019-02-25T13:52:07.978Z,2672
2019-02-25T13:53:16.096Z,2668
2019-02-25T13:54:24.114Z,2660
2019-02-25T13:55:32.175Z,2656
2019-02-25T13:56:40.239Z,2652
2019-02-25T13:57:48.320Z,2640
2019-02-25T13:58:56.371Z,2632
2019-02-25T14:00:04.448Z,2632
2019-02-25T14:01:12.503Z,2620
2019-02-25T14:02:20.571Z,2600
2019-02-25T14:03:28.633Z,2584
2019-02-25T14:04:36.714Z,2608
2019-02-25T14:05:44.748Z,2600
2019-02-25T14:06:52.825Z,2592
2019-02-25T14:08:00.890Z,2588
2019-02-25T14:09:08.991Z,2580
2019-02-25T14:10:17.060Z,2584
2019-02-25T14:11:25.094Z,2568
2019-02-25T14:12:33.144Z,2576
2019-02-25T14:13:41.208Z,2568
2019-02-25T14:14:49.272Z,2548
2019-02-25T14:15:57.330Z,2512
2019-02-25T14:17:05.401Z,2492
2019-02-25T14:18:13.463Z,2508
2019-02-25T14:19:21.546Z,2488
2019-02-25T14:20:29.602Z,2484
2019-02-25T14:21:37.636Z,2496
2019-02-25T14:22:45.721Z,2516
2019-02-25T14:23:53.802Z,2528
2019-02-25T14:25:03.548Z,2532
2019-02-25T14:26:09.927Z,2516
2019-02-25T14:27:17.982Z,2520
2019-02-25T14:28:26.037Z,2500
2019-02-25T14:29:34.115Z,2480
2019-02-25T14:30:42.171Z,2468
2019-02-25T14:31:51.040Z,2440
2019-02-25T14:32:58.313Z,2436
2019-02-25T14:34:06.358Z,2424
2019-02-25T14:35:14.445Z,2412
2019-02-25T14:36:22.508Z,2396
2019-02-25T14:37:30.574Z,2388
2019-02-25T14:38:38.648Z,2380
2019-02-25T14:39:49.453Z,2380
2019-02-25T14:40:56.724Z,2372
2019-02-25T14:42:04.201Z,2368
2019-02-25T14:43:12.861Z,2364
2019-02-25T14:44:18.955Z,2368
2019-02-25T14:45:28.795Z,2356
2019-02-25T14:46:35.074Z,2352
2019-02-25T14:47:44.429Z,2352
2019-02-25T14:48:51.201Z,2344
2019-02-25T14:49:59.265Z,2328
2019-02-25T14:51:08.769Z,2320
2019-02-25T14:52:15.402Z,2316
2019-02-25T14:53:23.467Z,2312
2019-02-25T14:54:32.218Z,2312
2019-02-25T14:55:40.630Z,2304
2019-02-25T14:56:49.593Z,2300
2019-02-25T14:57:59.861Z,2296
2019-02-25T14:59:07.585Z,2292
2019-02-25T15:00:11.860Z,2292
2019-02-25T15:01:20.838Z,2280
2019-02-25T15:02:27.970Z,2288
2019-02-25T15:03:36.054Z,2292
2019-02-25T15:04:44.128Z,2280
2019-02-25T15:05:53.260Z,2264
2019-02-25T15:07:00.225Z,2264
2019-02-25T15:08:08.298Z,2256
2019-02-25T15:09:16.373Z,2260
2019-02-25T15:10:26.935Z,2264
2019-02-25T15:11:32.505Z,2260
2019-02-25T15:12:40.559Z,2264
2019-02-25T15:13:48.622Z,2260
2019-02-25T15:14:58.020Z,2256
2019-02-25T15:16:04.764Z,2252
2019-02-25T15:17:14.406Z,2244
2019-02-25T15:18:22.081Z,2240
2019-02-25T15:19:30.021Z,2240
2019-02-25T15:20:37.005Z,2236
2019-02-25T15:21:47.369Z,2236
2019-02-25T15:22:53.138Z,2236
2019-02-25T15:24:02.572Z,2240
2019-02-25T15:25:09.253Z,2248
2019-02-25T15:26:19.005Z,2264
2019-02-25T15:27:25.387Z,2300
2019-02-25T15:28:33.452Z,2348
2019-02-25T15:29:42.230Z,2400
2019-02-25T15:30:49.567Z,2444
2019-02-25T15:31:58.989Z,2372
2019-02-25T15:33:05.712Z,2444
2019-02-25T15:34:14.690Z,2404
2019-02-25T15:35:21.836Z,2376
2019-02-25T15:36:29.898Z,2372
2019-02-25T15:37:37.956Z,2364
2019-02-25T15:38:46.027Z,2352
2019-02-25T15:39:55.846Z,2324
2019-02-25T15:41:04.184Z,2288
2019-02-25T15:42:10.236Z,2252